sensor_id;sensor_type;location;lat;lon;timestamp;P1;durP1;ratioP1;P2;durP2;ratioP2
1460;SDS011;724;49.910;12.530;2023-06-24T00:02:03;0.90;;;0.80;;
1460;SDS011;724;49.910;12.530;2023-06-24T00:04:30;1.30;;;1.20;;
1460;SDS011;724;49.910;12.530;2023-06-24T00:06:58;1.10;;;1.00;;
1460;SDS011;724;49.910;12.530;2023-06-24T00:09:25;1.43;;;1.33;;
1460;SDS011;724;49.910;12.530;2023-06-24T00:11:53;1.00;;;0.90;;
1460;SDS011;724;49.910;12.530;2023-06-24T00:14:21;0.90;;;0.80;;
1460;SDS011;724;49.910;12.530;2023-06-24T00:16:49;0.70;;;0.60;;
1460;SDS011;724;49.910;12.530;2023-06-24T00:19:18;0.80;;;0.70;;
1460;SDS011;724;49.910;12.530;2023-06-24T00:21:45;0.60;;;0.50;;
1460;SDS011;724;49.910;12.530;2023-06-24T00:24:12;0.50;;;0.40;;
1460;SDS011;724;49.910;12.530;2023-06-24T00:26:39;0.47;;;0.37;;
1460;SDS011;724;49.910;12.530;2023-06-24T00:29:06;0.50;;;0.40;;
1460;SDS011;724;49.910;12.530;2023-06-24T00:31:36;0.40;;;0.30;;
1460;SDS011;724;49.910;12.530;2023-06-24T00:34:03;0.40;;;0.30;;
1460;SDS011;724;49.910;12.530;2023-06-24T00:36:30;0.40;;;0.30;;
1460;SDS011;724;49.910;12.530;2023-06-24T00:38:57;0.40;;;0.30;;
1460;SDS011;724;49.910;12.530;2023-06-24T00:41:28;0.40;;;0.30;;
1460;SDS011;724;49.910;12.530;2023-06-24T00:43:56;0.40;;;0.30;;
1460;SDS011;724;49.910;12.530;2023-06-24T00:46:23;0.30;;;0.20;;
1460;SDS011;724;49.910;12.530;2023-06-24T00:48:52;0.40;;;0.30;;
1460;SDS011;724;49.910;12.530;2023-06-24T00:51:21;0.50;;;0.40;;
1460;SDS011;724;49.910;12.530;2023-06-24T00:53:51;0.50;;;0.40;;
1460;SDS011;724;49.910;12.530;2023-06-24T00:56:18;0.50;;;0.40;;
1460;SDS011;724;49.910;12.530;2023-06-24T00:58:47;0.40;;;0.30;;
1460;SDS011;724;49.910;12.530;2023-06-24T01:01:15;0.40;;;0.30;;
1460;SDS011;724;49.910;12.530;2023-06-24T01:03:43;0.30;;;0.20;;
1460;SDS011;724;49.910;12.530;2023-06-24T01:06:12;0.30;;;0.20;;
1460;SDS011;724;49.910;12.530;2023-06-24T01:08:40;0.40;;;0.30;;
1460;SDS011;724;49.910;12.530;2023-06-24T01:11:07;0.30;;;0.20;;
1460;SDS011;724;49.910;12.530;2023-06-24T01:13:34;0.20;;;0.10;;
1460;SDS011;724;49.910;12.530;2023-06-24T01:16:02;0.30;;;0.20;;
1460;SDS011;724;49.910;12.530;2023-06-24T01:18:37;0.20;;;0.10;;
1460;SDS011;724;49.910;12.530;2023-06-24T01:21:10;0.30;;;0.20;;
1460;SDS011;724;49.910;12.530;2023-06-24T01:23:56;0.20;;;0.10;;
1460;SDS011;724;49.910;12.530;2023-06-24T01:26:58;0.20;;;0.10;;
1460;SDS011;724;49.910;12.530;2023-06-24T01:29:52;0.20;;;0.10;;
1460;SDS011;724;49.910;12.530;2023-06-24T01:32:42;0.20;;;0.10;;
1460;SDS011;724;49.910;12.530;2023-06-24T01:35:11;0.20;;;0.10;;
1460;SDS011;724;49.910;12.530;2023-06-24T01:37:42;0.20;;;0.10;;
1460;SDS011;724;49.910;12.530;2023-06-24T01:40:14;0.20;;;0.10;;
1460;SDS011;724;49.910;12.530;2023-06-24T01:42:49;0.00;;;0.00;;
1460;SDS011;724;49.910;12.530;2023-06-24T01:45:17;0.20;;;0.10;;
1460;SDS011;724;49.910;12.530;2023-06-24T01:47:49;0.20;;;0.10;;
1460;SDS011;724;49.910;12.530;2023-06-24T01:50:26;0.00;;;0.00;;
1460;SDS011;724;49.910;12.530;2023-06-24T01:52:56;0.00;;;0.00;;
1460;SDS011;724;49.910;12.530;2023-06-24T01:55:24;0.00;;;0.00;;
1460;SDS011;724;49.910;12.530;2023-06-24T01:57:53;0.00;;;0.00;;
1460;SDS011;724;49.910;12.530;2023-06-24T02:00:23;0.20;;;0.10;;
1460;SDS011;724;49.910;12.530;2023-06-24T02:02:53;0.20;;;0.10;;
1460;SDS011;724;49.910;12.530;2023-06-24T02:05:21;0.20;;;0.10;;
1460;SDS011;724;49.910;12.530;2023-06-24T02:07:51;0.30;;;0.20;;
1460;SDS011;724;49.910;12.530;2023-06-24T02:10:19;0.20;;;0.10;;
1460;SDS011;724;49.910;12.530;2023-06-24T02:12:49;0.20;;;0.10;;
1460;SDS011;724;49.910;12.530;2023-06-24T02:15:18;0.20;;;0.10;;
1460;SDS011;724;49.910;12.530;2023-06-24T02:17:48;0.30;;;0.20;;
1460;SDS011;724;49.910;12.530;2023-06-24T02:20:23;0.30;;;0.20;;
1460;SDS011;724;49.910;12.530;2023-06-24T02:22:52;0.40;;;0.30;;
1460;SDS011;724;49.910;12.530;2023-06-24T02:25:19;0.30;;;0.20;;
1460;SDS011;724;49.910;12.530;2023-06-24T02:27:46;0.30;;;0.20;;
1460;SDS011;724;49.910;12.530;2023-06-24T02:30:14;0.40;;;0.30;;
1460;SDS011;724;49.910;12.530;2023-06-24T02:32:41;0.60;;;0.50;;
1460;SDS011;724;49.910;12.530;2023-06-24T02:35:08;0.60;;;0.50;;
1460;SDS011;724;49.910;12.530;2023-06-24T02:37:36;0.50;;;0.40;;
1460;SDS011;724;49.910;12.530;2023-06-24T02:40:04;0.60;;;0.50;;
1460;SDS011;724;49.910;12.530;2023-06-24T02:42:32;0.73;;;0.63;;
1460;SDS011;724;49.910;12.530;2023-06-24T02:44:58;0.70;;;0.60;;
1460;SDS011;724;49.910;12.530;2023-06-24T02:47:26;0.90;;;0.80;;
1460;SDS011;724;49.910;12.530;2023-06-24T02:49:54;1.00;;;0.90;;
1460;SDS011;724;49.910;12.530;2023-06-24T02:52:23;1.33;;;1.23;;
1460;SDS011;724;49.910;12.530;2023-06-24T02:54:55;1.60;;;1.50;;
1460;SDS011;724;49.910;12.530;2023-06-24T02:57:22;1.60;;;1.50;;
1460;SDS011;724;49.910;12.530;2023-06-24T02:59:50;1.30;;;1.20;;
1460;SDS011;724;49.910;12.530;2023-06-24T03:02:17;1.20;;;1.10;;
1460;SDS011;724;49.910;12.530;2023-06-24T03:04:44;1.30;;;1.20;;
1460;SDS011;724;49.910;12.530;2023-06-24T03:07:12;1.20;;;1.10;;
1460;SDS011;724;49.910;12.530;2023-06-24T03:09:39;1.20;;;1.10;;
1460;SDS011;724;49.910;12.530;2023-06-24T03:12:09;0.90;;;0.80;;
1460;SDS011;724;49.910;12.530;2023-06-24T03:14:38;0.90;;;0.80;;
1460;SDS011;724;49.910;12.530;2023-06-24T03:17:06;0.90;;;0.80;;
1460;SDS011;724;49.910;12.530;2023-06-24T03:19:33;0.80;;;0.70;;
1460;SDS011;724;49.910;12.530;2023-06-24T03:22:00;0.70;;;0.60;;
1460;SDS011;724;49.910;12.530;2023-06-24T03:24:27;0.80;;;0.70;;
1460;SDS011;724;49.910;12.530;2023-06-24T03:26:54;0.60;;;0.50;;
1460;SDS011;724;49.910;12.530;2023-06-24T03:29:25;0.57;;;0.47;;
1460;SDS011;724;49.910;12.530;2023-06-24T03:31:52;0.60;;;0.50;;
1460;SDS011;724;49.910;12.530;2023-06-24T03:34:19;0.70;;;0.60;;
1460;SDS011;724;49.910;12.530;2023-06-24T03:36:48;0.70;;;0.60;;
1460;SDS011;724;49.910;12.530;2023-06-24T03:39:19;0.73;;;0.63;;
1460;SDS011;724;49.910;12.530;2023-06-24T03:41:46;0.70;;;0.60;;
1460;SDS011;724;49.910;12.530;2023-06-24T03:44:13;0.80;;;0.70;;
1460;SDS011;724;49.910;12.530;2023-06-24T03:46:41;0.90;;;0.80;;
1460;SDS011;724;49.910;12.530;2023-06-24T03:49:08;0.90;;;0.80;;
1460;SDS011;724;49.910;12.530;2023-06-24T03:51:35;1.13;;;1.03;;
1460;SDS011;724;49.910;12.530;2023-06-24T03:54:02;1.10;;;1.00;;
1460;SDS011;724;49.910;12.530;2023-06-24T03:56:29;1.00;;;0.90;;
1460;SDS011;724;49.910;12.530;2023-06-24T03:58:56;1.30;;;1.20;;
1460;SDS011;724;49.910;12.530;2023-06-24T04:01:23;1.30;;;1.20;;
1460;SDS011;724;49.910;12.530;2023-06-24T04:03:51;1.20;;;1.10;;
1460;SDS011;724;49.910;12.530;2023-06-24T04:06:17;1.30;;;1.20;;
1460;SDS011;724;49.910;12.530;2023-06-24T04:08:44;1.50;;;1.40;;
1460;SDS011;724;49.910;12.530;2023-06-24T04:11:13;1.60;;;1.50;;
1460;SDS011;724;49.910;12.530;2023-06-24T04:13:40;1.80;;;1.70;;
1460;SDS011;724;49.910;12.530;2023-06-24T04:16:07;2.20;;;2.00;;
1460;SDS011;724;49.910;12.530;2023-06-24T04:18:34;2.00;;;1.90;;
1460;SDS011;724;49.910;12.530;2023-06-24T04:21:06;1.90;;;1.80;;
1460;SDS011;724;49.910;12.530;2023-06-24T04:23:33;2.00;;;1.90;;
1460;SDS011;724;49.910;12.530;2023-06-24T04:26:00;2.00;;;1.90;;
1460;SDS011;724;49.910;12.530;2023-06-24T04:28:27;2.50;;;2.30;;
1460;SDS011;724;49.910;12.530;2023-06-24T04:30:54;2.70;;;2.50;;
1460;SDS011;724;49.910;12.530;2023-06-24T04:33:22;2.70;;;2.50;;
1460;SDS011;724;49.910;12.530;2023-06-24T04:35:49;2.80;;;2.60;;
1460;SDS011;724;49.910;12.530;2023-06-24T04:38:19;3.00;;;2.80;;
1460;SDS011;724;49.910;12.530;2023-06-24T04:40:46;3.30;;;3.10;;
1460;SDS011;724;49.910;12.530;2023-06-24T04:43:13;3.30;;;3.10;;
1460;SDS011;724;49.910;12.530;2023-06-24T04:45:40;3.50;;;3.30;;
1460;SDS011;724;49.910;12.530;2023-06-24T04:48:07;4.00;;;3.80;;
1460;SDS011;724;49.910;12.530;2023-06-24T04:50:33;3.93;;;3.73;;
1460;SDS011;724;49.910;12.530;2023-06-24T04:53:00;4.07;;;3.87;;
1460;SDS011;724;49.910;12.530;2023-06-24T04:55:29;4.30;;;4.00;;
1460;SDS011;724;49.910;12.530;2023-06-24T04:57:56;3.70;;;3.50;;
1460;SDS011;724;49.910;12.530;2023-06-24T05:00:25;3.50;;;3.30;;
1460;SDS011;724;49.910;12.530;2023-06-24T05:02:52;3.60;;;3.40;;
1460;SDS011;724;49.910;12.530;2023-06-24T05:05:19;3.67;;;3.47;;
1460;SDS011;724;49.910;12.530;2023-06-24T05:07:47;3.40;;;3.20;;
1460;SDS011;724;49.910;12.530;2023-06-24T05:10:15;3.40;;;3.20;;
1460;SDS011;724;49.910;12.530;2023-06-24T05:12:43;3.37;;;3.17;;
1460;SDS011;724;49.910;12.530;2023-06-24T05:15:12;3.53;;;3.33;;
1460;SDS011;724;49.910;12.530;2023-06-24T05:17:39;3.60;;;3.40;;
1460;SDS011;724;49.910;12.530;2023-06-24T05:20:06;3.80;;;3.60;;
1460;SDS011;724;49.910;12.530;2023-06-24T05:22:35;4.00;;;3.80;;
1460;SDS011;724;49.910;12.530;2023-06-24T05:25:02;4.50;;;4.20;;
1460;SDS011;724;49.910;12.530;2023-06-24T05:27:31;4.97;;;4.67;;
1460;SDS011;724;49.910;12.530;2023-06-24T05:29:59;5.80;;;5.50;;
1460;SDS011;724;49.910;12.530;2023-06-24T05:32:26;6.40;;;6.00;;
1460;SDS011;724;49.910;12.530;2023-06-24T05:34:52;6.50;;;6.10;;
1460;SDS011;724;49.910;12.530;2023-06-24T05:37:19;6.63;;;6.23;;
1460;SDS011;724;49.910;12.530;2023-06-24T05:39:46;6.77;;;6.37;;
1460;SDS011;724;49.910;12.530;2023-06-24T05:42:13;7.50;;;7.10;;
1460;SDS011;724;49.910;12.530;2023-06-24T05:44:40;8.03;;;7.63;;
1460;SDS011;724;49.910;12.530;2023-06-24T05:47:08;8.20;;;7.80;;
1460;SDS011;724;49.910;12.530;2023-06-24T05:49:35;7.93;;;7.53;;
1460;SDS011;724;49.910;12.530;2023-06-24T05:52:03;8.60;;;8.10;;
1460;SDS011;724;49.910;12.530;2023-06-24T05:54:32;8.90;;;8.40;;
1460;SDS011;724;49.910;12.530;2023-06-24T05:56:59;8.80;;;8.30;;
1460;SDS011;724;49.910;12.530;2023-06-24T05:59:26;8.80;;;8.30;;
1460;SDS011;724;49.910;12.530;2023-06-24T06:01:53;9.23;;;8.73;;
1460;SDS011;724;49.910;12.530;2023-06-24T06:04:22;9.70;;;9.20;;
1460;SDS011;724;49.910;12.530;2023-06-24T06:06:48;9.30;;;8.80;;
1460;SDS011;724;49.910;12.530;2023-06-24T06:09:15;10.10;;;9.60;;
1460;SDS011;724;49.910;12.530;2023-06-24T06:11:42;10.33;;;9.83;;
1460;SDS011;724;49.910;12.530;2023-06-24T06:14:09;10.30;;;9.80;;
1460;SDS011;724;49.910;12.530;2023-06-24T06:16:35;10.70;;;10.10;;
1460;SDS011;724;49.910;12.530;2023-06-24T06:19:02;10.27;;;9.77;;
1460;SDS011;724;49.910;12.530;2023-06-24T06:21:30;11.00;;;10.40;;
1460;SDS011;724;49.910;12.530;2023-06-24T06:23:57;10.20;;;9.70;;
1460;SDS011;724;49.910;12.530;2023-06-24T06:26:25;10.20;;;9.70;;
1460;SDS011;724;49.910;12.530;2023-06-24T06:28:52;10.90;;;10.30;;
1460;SDS011;724;49.910;12.530;2023-06-24T06:31:19;10.27;;;9.77;;
1460;SDS011;724;49.910;12.530;2023-06-24T06:33:46;10.70;;;10.10;;
1460;SDS011;724;49.910;12.530;2023-06-24T06:36:13;11.00;;;10.40;;
1460;SDS011;724;49.910;12.530;2023-06-24T06:38:41;10.80;;;10.20;;
1460;SDS011;724;49.910;12.530;2023-06-24T06:41:08;11.20;;;10.60;;
1460;SDS011;724;49.910;12.530;2023-06-24T06:43:35;11.00;;;10.40;;
1460;SDS011;724;49.910;12.530;2023-06-24T06:46:04;10.60;;;10.00;;
1460;SDS011;724;49.910;12.530;2023-06-24T06:48:30;11.00;;;10.40;;
1460;SDS011;724;49.910;12.530;2023-06-24T06:50:57;11.00;;;10.40;;
1460;SDS011;724;49.910;12.530;2023-06-24T06:53:25;10.90;;;10.30;;
1460;SDS011;724;49.910;12.530;2023-06-24T06:55:53;11.60;;;11.00;;
1460;SDS011;724;49.910;12.530;2023-06-24T06:58:20;10.80;;;10.20;;
1460;SDS011;724;49.910;12.530;2023-06-24T07:00:49;11.80;;;11.20;;
1460;SDS011;724;49.910;12.530;2023-06-24T07:03:16;11.20;;;10.60;;
1460;SDS011;724;49.910;12.530;2023-06-24T07:05:43;11.80;;;11.20;;
1460;SDS011;724;49.910;12.530;2023-06-24T07:08:11;11.70;;;11.10;;
1460;SDS011;724;49.910;12.530;2023-06-24T07:10:38;11.63;;;11.03;;
1460;SDS011;724;49.910;12.530;2023-06-24T07:13:07;11.70;;;11.10;;
1460;SDS011;724;49.910;12.530;2023-06-24T07:15:33;11.40;;;10.80;;
1460;SDS011;724;49.910;12.530;2023-06-24T07:18:00;11.30;;;10.70;;
1460;SDS011;724;49.910;12.530;2023-06-24T07:20:27;11.60;;;11.00;;
1460;SDS011;724;49.910;12.530;2023-06-24T07:22:54;12.30;;;11.70;;
1460;SDS011;724;49.910;12.530;2023-06-24T07:25:21;11.90;;;11.30;;
1460;SDS011;724;49.910;12.530;2023-06-24T07:27:49;11.60;;;11.00;;
1460;SDS011;724;49.910;12.530;2023-06-24T07:30:17;11.93;;;11.33;;
1460;SDS011;724;49.910;12.530;2023-06-24T07:32:44;11.43;;;10.83;;
1460;SDS011;724;49.910;12.530;2023-06-24T07:35:11;11.33;;;10.73;;
1460;SDS011;724;49.910;12.530;2023-06-24T07:37:38;11.07;;;10.47;;
1460;SDS011;724;49.910;12.530;2023-06-24T07:40:06;11.60;;;11.00;;
1460;SDS011;724;49.910;12.530;2023-06-24T07:42:34;11.33;;;10.73;;
1460;SDS011;724;49.910;12.530;2023-06-24T07:45:04;12.40;;;11.80;;
1460;SDS011;724;49.910;12.530;2023-06-24T07:47:33;11.70;;;11.10;;
1460;SDS011;724;49.910;12.530;2023-06-24T07:50:00;12.23;;;11.63;;
1460;SDS011;724;49.910;12.530;2023-06-24T07:52:27;12.00;;;11.40;;
1460;SDS011;724;49.910;12.530;2023-06-24T07:54:56;12.13;;;11.53;;
1460;SDS011;724;49.910;12.530;2023-06-24T07:57:23;12.70;;;12.00;;
1460;SDS011;724;49.910;12.530;2023-06-24T07:59:49;12.50;;;11.90;;
1460;SDS011;724;49.910;12.530;2023-06-24T08:02:17;12.00;;;11.40;;
1460;SDS011;724;49.910;12.530;2023-06-24T08:04:45;12.10;;;11.50;;
1460;SDS011;724;49.910;12.530;2023-06-24T08:07:12;11.70;;;11.10;;
1460;SDS011;724;49.910;12.530;2023-06-24T08:09:40;11.80;;;11.20;;
1460;SDS011;724;49.910;12.530;2023-06-24T08:12:07;12.20;;;11.60;;
1460;SDS011;724;49.910;12.530;2023-06-24T08:14:35;12.10;;;11.50;;
1460;SDS011;724;49.910;12.530;2023-06-24T08:17:02;11.90;;;11.30;;
1460;SDS011;724;49.910;12.530;2023-06-24T08:19:29;11.60;;;11.00;;
1460;SDS011;724;49.910;12.530;2023-06-24T08:21:57;11.60;;;11.00;;
1460;SDS011;724;49.910;12.530;2023-06-24T08:24:25;11.80;;;11.20;;
1460;SDS011;724;49.910;12.530;2023-06-24T08:26:51;12.03;;;11.43;;
1460;SDS011;724;49.910;12.530;2023-06-24T08:29:19;11.77;;;11.17;;
1460;SDS011;724;49.910;12.530;2023-06-24T08:31:46;12.10;;;11.50;;
1460;SDS011;724;49.910;12.530;2023-06-24T08:34:12;11.90;;;11.30;;
1460;SDS011;724;49.910;12.530;2023-06-24T08:36:39;12.20;;;11.60;;
1460;SDS011;724;49.910;12.530;2023-06-24T08:39:08;12.07;;;11.47;;
1460;SDS011;724;49.910;12.530;2023-06-24T08:41:35;12.90;;;12.20;;
1460;SDS011;724;49.910;12.530;2023-06-24T08:44:02;12.10;;;11.50;;
1460;SDS011;724;49.910;12.530;2023-06-24T08:46:29;12.40;;;11.80;;
1460;SDS011;724;49.910;12.530;2023-06-24T08:48:59;12.80;;;12.10;;
1460;SDS011;724;49.910;12.530;2023-06-24T08:51:35;12.40;;;11.80;;
1460;SDS011;724;49.910;12.530;2023-06-24T08:54:06;11.77;;;11.17;;
1460;SDS011;724;49.910;12.530;2023-06-24T08:56:35;12.20;;;11.60;;
1460;SDS011;724;49.910;12.530;2023-06-24T08:59:04;12.33;;;11.73;;
1460;SDS011;724;49.910;12.530;2023-06-24T09:01:31;12.40;;;11.80;;
1460;SDS011;724;49.910;12.530;2023-06-24T09:03:58;13.17;;;12.47;;
1460;SDS011;724;49.910;12.530;2023-06-24T09:06:24;12.80;;;12.10;;
1460;SDS011;724;49.910;12.530;2023-06-24T09:08:52;13.40;;;12.70;;
1460;SDS011;724;49.910;12.530;2023-06-24T09:11:23;12.93;;;12.23;;
1460;SDS011;724;49.910;12.530;2023-06-24T09:13:54;12.47;;;11.87;;
1460;SDS011;724;49.910;12.530;2023-06-24T09:16:21;13.00;;;12.30;;
1460;SDS011;724;49.910;12.530;2023-06-24T09:18:48;12.50;;;11.90;;
1460;SDS011;724;49.910;12.530;2023-06-24T09:21:21;12.70;;;12.00;;
1460;SDS011;724;49.910;12.530;2023-06-24T09:23:50;12.63;;;11.97;;
1460;SDS011;724;49.910;12.530;2023-06-24T09:26:23;12.20;;;11.60;;
1460;SDS011;724;49.910;12.530;2023-06-24T09:35:41;12.73;;;12.03;;
1460;SDS011;724;49.910;12.530;2023-06-24T09:38:10;12.50;;;11.90;;
1460;SDS011;724;49.910;12.530;2023-06-24T09:40:39;13.10;;;12.40;;
1460;SDS011;724;49.910;12.530;2023-06-24T09:43:07;12.80;;;12.10;;
1460;SDS011;724;49.910;12.530;2023-06-24T09:45:34;13.27;;;12.57;;
1460;SDS011;724;49.910;12.530;2023-06-24T09:48:01;13.40;;;12.70;;
1460;SDS011;724;49.910;12.530;2023-06-24T09:50:28;12.97;;;12.27;;
1460;SDS011;724;49.910;12.530;2023-06-24T09:52:56;13.10;;;12.40;;
1460;SDS011;724;49.910;12.530;2023-06-24T09:55:24;12.80;;;12.10;;
1460;SDS011;724;49.910;12.530;2023-06-24T09:57:52;12.80;;;12.10;;
1460;SDS011;724;49.910;12.530;2023-06-24T10:00:23;12.40;;;11.80;;
1460;SDS011;724;49.910;12.530;2023-06-24T10:02:52;12.40;;;11.80;;
1460;SDS011;724;49.910;12.530;2023-06-24T10:05:21;12.40;;;11.80;;
1460;SDS011;724;49.910;12.530;2023-06-24T10:07:49;12.50;;;11.90;;
1460;SDS011;724;49.910;12.530;2023-06-24T10:10:16;12.80;;;12.10;;
1460;SDS011;724;49.910;12.530;2023-06-24T10:12:44;12.33;;;11.73;;
1460;SDS011;724;49.910;12.530;2023-06-24T10:15:11;12.20;;;11.60;;
1460;SDS011;724;49.910;12.530;2023-06-24T10:17:39;12.63;;;11.97;;
1460;SDS011;724;49.910;12.530;2023-06-24T10:20:06;12.77;;;12.07;;
1460;SDS011;724;49.910;12.530;2023-06-24T10:22:33;12.00;;;11.40;;
1460;SDS011;724;49.910;12.530;2023-06-24T10:25:01;12.20;;;11.60;;
1460;SDS011;724;49.910;12.530;2023-06-24T10:27:31;12.20;;;11.60;;
1460;SDS011;724;49.910;12.530;2023-06-24T10:30:05;12.50;;;11.90;;
1460;SDS011;724;49.910;12.530;2023-06-24T10:32:40;12.50;;;11.90;;
1460;SDS011;724;49.910;12.530;2023-06-24T10:35:20;12.20;;;11.60;;
1460;SDS011;724;49.910;12.530;2023-06-24T10:37:56;12.63;;;11.97;;
1460;SDS011;724;49.910;12.530;2023-06-24T10:40:34;12.70;;;12.00;;
1460;SDS011;724;49.910;12.530;2023-06-24T10:43:04;12.90;;;12.20;;
1460;SDS011;724;49.910;12.530;2023-06-24T10:45:51;12.10;;;11.50;;
1460;SDS011;724;49.910;12.530;2023-06-24T10:48:19;12.37;;;11.77;;
1460;SDS011;724;49.910;12.530;2023-06-24T10:50:46;12.47;;;11.87;;
1460;SDS011;724;49.910;12.530;2023-06-24T10:53:13;12.40;;;11.80;;
1460;SDS011;724;49.910;12.530;2023-06-24T10:55:40;12.00;;;11.40;;
1460;SDS011;724;49.910;12.530;2023-06-24T10:58:09;12.20;;;11.60;;
1460;SDS011;724;49.910;12.530;2023-06-24T11:00:39;12.27;;;11.67;;
1460;SDS011;724;49.910;12.530;2023-06-24T11:03:07;12.10;;;11.50;;
1460;SDS011;724;49.910;12.530;2023-06-24T11:05:36;11.93;;;11.33;;
1460;SDS011;724;49.910;12.530;2023-06-24T11:08:05;12.00;;;11.40;;
1460;SDS011;724;49.910;12.530;2023-06-24T11:10:32;11.70;;;11.10;;
1460;SDS011;724;49.910;12.530;2023-06-24T11:13:04;11.90;;;11.30;;
1460;SDS011;724;49.910;12.530;2023-06-24T11:15:32;11.73;;;11.13;;
1460;SDS011;724;49.910;12.530;2023-06-24T11:18:01;11.47;;;10.87;;
1460;SDS011;724;49.910;12.530;2023-06-24T11:20:29;11.60;;;11.00;;
1460;SDS011;724;49.910;12.530;2023-06-24T11:22:56;11.20;;;10.60;;
1460;SDS011;724;49.910;12.530;2023-06-24T11:25:22;11.70;;;11.10;;
1460;SDS011;724;49.910;12.530;2023-06-24T11:27:49;11.83;;;11.23;;
1460;SDS011;724;49.910;12.530;2023-06-24T11:30:17;11.73;;;11.13;;
1460;SDS011;724;49.910;12.530;2023-06-24T11:32:44;12.20;;;11.60;;
1460;SDS011;724;49.910;12.530;2023-06-24T11:35:14;12.17;;;11.57;;
1460;SDS011;724;49.910;12.530;2023-06-24T11:37:41;12.40;;;11.80;;
1460;SDS011;724;49.910;12.530;2023-06-24T11:40:09;11.93;;;11.33;;
1460;SDS011;724;49.910;12.530;2023-06-24T11:42:37;11.73;;;11.13;;
1460;SDS011;724;49.910;12.530;2023-06-24T11:45:06;12.00;;;11.40;;
1460;SDS011;724;49.910;12.530;2023-06-24T11:47:34;11.80;;;11.20;;
1460;SDS011;724;49.910;12.530;2023-06-24T11:50:02;11.97;;;11.37;;
1460;SDS011;724;49.910;12.530;2023-06-24T11:52:39;12.00;;;11.40;;
1460;SDS011;724;49.910;12.530;2023-06-24T11:57:49;11.80;;;11.20;;
1460;SDS011;724;49.910;12.530;2023-06-24T12:00:19;11.87;;;11.27;;
1460;SDS011;724;49.910;12.530;2023-06-24T12:02:48;11.50;;;10.90;;
1460;SDS011;724;49.910;12.530;2023-06-24T12:05:19;11.50;;;10.90;;
1460;SDS011;724;49.910;12.530;2023-06-24T12:07:53;11.80;;;11.20;;
1460;SDS011;724;49.910;12.530;2023-06-24T12:10:21;11.90;;;11.30;;
1460;SDS011;724;49.910;12.530;2023-06-24T12:12:48;12.20;;;11.60;;
1460;SDS011;724;49.910;12.530;2023-06-24T12:15:15;12.00;;;11.40;;
1460;SDS011;724;49.910;12.530;2023-06-24T12:17:41;11.83;;;11.23;;
1460;SDS011;724;49.910;12.530;2023-06-24T12:20:08;12.00;;;11.40;;
1460;SDS011;724;49.910;12.530;2023-06-24T12:22:36;11.90;;;11.30;;
1460;SDS011;724;49.910;12.530;2023-06-24T12:25:04;11.70;;;11.10;;
1460;SDS011;724;49.910;12.530;2023-06-24T12:27:32;11.80;;;11.20;;
1460;SDS011;724;49.910;12.530;2023-06-24T12:29:59;12.20;;;11.60;;
1460;SDS011;724;49.910;12.530;2023-06-24T12:32:26;12.20;;;11.60;;
1460;SDS011;724;49.910;12.530;2023-06-24T12:34:53;11.80;;;11.20;;
1460;SDS011;724;49.910;12.530;2023-06-24T12:37:20;12.17;;;11.57;;
1460;SDS011;724;49.910;12.530;2023-06-24T12:39:47;12.10;;;11.50;;
1460;SDS011;724;49.910;12.530;2023-06-24T12:42:17;11.60;;;11.00;;
1460;SDS011;724;49.910;12.530;2023-06-24T12:44:44;11.30;;;10.70;;
1460;SDS011;724;49.910;12.530;2023-06-24T12:47:11;11.73;;;11.13;;
1460;SDS011;724;49.910;12.530;2023-06-24T12:49:37;11.70;;;11.10;;
1460;SDS011;724;49.910;12.530;2023-06-24T12:52:04;11.40;;;10.80;;
1460;SDS011;724;49.910;12.530;2023-06-24T12:54:31;11.30;;;10.70;;
1460;SDS011;724;49.910;12.530;2023-06-24T12:56:58;11.30;;;10.70;;
1460;SDS011;724;49.910;12.530;2023-06-24T12:59:26;11.20;;;10.60;;
1460;SDS011;724;49.910;12.530;2023-06-24T13:01:56;11.30;;;10.70;;
1460;SDS011;724;49.910;12.530;2023-06-24T13:04:23;11.30;;;10.70;;
1460;SDS011;724;49.910;12.530;2023-06-24T13:06:50;11.50;;;10.90;;
1460;SDS011;724;49.910;12.530;2023-06-24T13:09:17;11.60;;;11.00;;
1460;SDS011;724;49.910;12.530;2023-06-24T13:11:44;11.00;;;10.40;;
1460;SDS011;724;49.910;12.530;2023-06-24T13:14:11;11.00;;;10.40;;
1460;SDS011;724;49.910;12.530;2023-06-24T13:16:40;11.20;;;10.60;;
1460;SDS011;724;49.910;12.530;2023-06-24T13:19:06;11.00;;;10.40;;
1460;SDS011;724;49.910;12.530;2023-06-24T13:21:33;11.30;;;10.70;;
1460;SDS011;724;49.910;12.530;2023-06-24T13:24:00;11.00;;;10.40;;
1460;SDS011;724;49.910;12.530;2023-06-24T13:26:27;11.40;;;10.80;;
1460;SDS011;724;49.910;12.530;2023-06-24T13:28:54;11.30;;;10.70;;
1460;SDS011;724;49.910;12.530;2023-06-24T13:31:20;11.13;;;10.53;;
1460;SDS011;724;49.910;12.530;2023-06-24T13:33:48;11.20;;;10.60;;
1460;SDS011;724;49.910;12.530;2023-06-24T13:36:27;11.07;;;10.47;;
1460;SDS011;724;49.910;12.530;2023-06-24T13:38:57;10.90;;;10.30;;
1460;SDS011;724;49.910;12.530;2023-06-24T13:41:24;11.10;;;10.50;;
1460;SDS011;724;49.910;12.530;2023-06-24T13:43:54;11.30;;;10.70;;
1460;SDS011;724;49.910;12.530;2023-06-24T13:46:21;11.20;;;10.60;;
1460;SDS011;724;49.910;12.530;2023-06-24T13:48:49;11.43;;;10.83;;
1460;SDS011;724;49.910;12.530;2023-06-24T13:51:16;11.00;;;10.40;;
1460;SDS011;724;49.910;12.530;2023-06-24T13:53:45;11.00;;;10.40;;
1460;SDS011;724;49.910;12.530;2023-06-24T13:56:12;10.70;;;10.10;;
1460;SDS011;724;49.910;12.530;2023-06-24T13:58:38;10.70;;;10.10;;
1460;SDS011;724;49.910;12.530;2023-06-24T14:01:05;10.70;;;10.10;;
1460;SDS011;724;49.910;12.530;2023-06-24T14:03:32;11.00;;;10.40;;
1460;SDS011;724;49.910;12.530;2023-06-24T14:06:00;10.90;;;10.30;;
1460;SDS011;724;49.910;12.530;2023-06-24T14:08:28;10.80;;;10.20;;
1460;SDS011;724;49.910;12.530;2023-06-24T14:10:55;11.00;;;10.40;;
1460;SDS011;724;49.910;12.530;2023-06-24T14:13:22;10.77;;;10.17;;
1460;SDS011;724;49.910;12.530;2023-06-24T14:15:49;10.80;;;10.20;;
1460;SDS011;724;49.910;12.530;2023-06-24T14:18:16;10.40;;;9.90;;
1460;SDS011;724;49.910;12.530;2023-06-24T14:20:42;10.60;;;10.00;;
1460;SDS011;724;49.910;12.530;2023-06-24T14:23:11;10.70;;;10.10;;
1460;SDS011;724;49.910;12.530;2023-06-24T14:25:37;10.70;;;10.10;;
1460;SDS011;724;49.910;12.530;2023-06-24T14:28:05;10.80;;;10.20;;
1460;SDS011;724;49.910;12.530;2023-06-24T14:30:32;10.77;;;10.17;;
1460;SDS011;724;49.910;12.530;2023-06-24T14:33:00;10.80;;;10.20;;
1460;SDS011;724;49.910;12.530;2023-06-24T14:35:27;10.87;;;10.27;;
1460;SDS011;724;49.910;12.530;2023-06-24T14:37:54;10.70;;;10.10;;
1460;SDS011;724;49.910;12.530;2023-06-24T14:40:23;10.40;;;9.90;;
1460;SDS011;724;49.910;12.530;2023-06-24T14:42:50;11.07;;;10.47;;
1460;SDS011;724;49.910;12.530;2023-06-24T14:45:17;10.70;;;10.10;;
1460;SDS011;724;49.910;12.530;2023-06-24T14:47:44;10.90;;;10.30;;
1460;SDS011;724;49.910;12.530;2023-06-24T14:50:11;10.80;;;10.20;;
1460;SDS011;724;49.910;12.530;2023-06-24T14:52:38;10.70;;;10.10;;
1460;SDS011;724;49.910;12.530;2023-06-24T14:55:05;10.70;;;10.10;;
1460;SDS011;724;49.910;12.530;2023-06-24T14:57:34;10.40;;;9.90;;
1460;SDS011;724;49.910;12.530;2023-06-24T15:00:01;11.03;;;10.43;;
1460;SDS011;724;49.910;12.530;2023-06-24T15:02:28;11.37;;;10.77;;
1460;SDS011;724;49.910;12.530;2023-06-24T15:04:55;10.90;;;10.30;;
1460;SDS011;724;49.910;12.530;2023-06-24T15:07:22;11.57;;;10.97;;
1460;SDS011;724;49.910;12.530;2023-06-24T15:09:49;11.10;;;10.50;;
1460;SDS011;724;49.910;12.530;2023-06-24T15:12:15;11.33;;;10.73;;
1460;SDS011;724;49.910;12.530;2023-06-24T15:14:43;11.10;;;10.50;;
1460;SDS011;724;49.910;12.530;2023-06-24T15:17:11;11.00;;;10.40;;